Luther, Illinois
Current Conditions -  °F | °C
As of 8:15 PM on Thursday 20 Nov 2014 (Local Time) from KAAA Reporting Station
Clear Clear  
Wind Chill: 24°   Ceiling: Unl
Heat Index: 24°   Visibility: 10mi
Dew Point: 11°   Wind: 0mph
Humidity: 58%   Direction: NA
Pressure: 30.29"   Gusts: NA
Location:  40.1812°N, 89.7163°W
Report Text: KAAA 210215Z AUTO 00000KT 10SM CLR M04/M11 A3029 RMK AO2 T10441115
Loading
Personal Weather Stations






























Interactive Weather Map New forecast layout! Learn more

10-Day Weather Forecast

Advertisements
Track Severe Weather on mobile